createdAt,value
2022-10-02T06:03:15.439Z,101094.94
2022-10-02T06:06:34.797Z,101104.00
2022-10-02T06:09:55.520Z,101111.06
2022-10-02T06:13:35.699Z,101131.16
2022-10-02T06:16:53.997Z,101145.91
2022-10-02T06:20:04.211Z,101134.44
2022-10-02T06:23:31.670Z,101134.44
2022-10-02T06:26:49.378Z,101136.22
2022-10-02T06:30:11.294Z,101127.47
2022-10-02T06:33:26.430Z,101125.63
2022-10-02T06:36:42.896Z,101125.56
2022-10-02T06:40:12.031Z,101136.84
2022-10-02T06:43:54.682Z,101128.09
2022-10-02T06:47:18.283Z,101129.16
2022-10-02T06:50:43.202Z,101123.22
2022-10-02T06:53:56.756Z,101124.91
2022-10-02T06:57:11.558Z,101133.72
2022-10-02T07:00:21.296Z,101138.84
2022-10-02T07:04:27.433Z,101142.09
2022-10-02T07:08:01.289Z,101141.81
2022-10-02T07:11:32.334Z,101159.06
2022-10-02T07:16:12.789Z,101161.06
2022-10-02T07:25:01.586Z,101157.53
2022-10-02T07:28:44.006Z,101162.94
2022-10-02T07:32:52.154Z,101156.16
2022-10-02T07:36:20.139Z,101166.81
2022-10-02T09:46:35.317Z,101276.28
2022-10-02T10:40:30.636Z,101338.50
2022-10-02T11:14:01.078Z,101200.72
2022-10-02T11:59:51.122Z,101263.44
2022-10-02T12:03:24.834Z,101283.97
2022-10-02T12:11:40.830Z,101290.28
2022-10-02T12:15:57.178Z,101291.44
2022-10-02T12:25:10.256Z,101296.56
2022-10-02T12:47:24.846Z,101257.44
2022-10-02T12:55:36.917Z,101254.91
2022-10-02T13:05:04.707Z,101242.22
2022-10-02T13:14:22.143Z,101201.34
2022-10-02T13:18:48.181Z,101196.44
2022-10-02T13:22:34.093Z,101202.69
2022-10-02T14:06:03.284Z,101232.41
2022-10-02T14:09:12.470Z,101239.63
2022-10-02T14:13:14.611Z,101220.53
2022-10-02T14:16:30.754Z,101223.28
2022-10-02T14:19:51.732Z,101226.22
2022-10-02T14:23:25.409Z,101236.41
2022-10-02T14:27:22.245Z,101248.28
2022-10-02T14:31:08.760Z,101294.31
2022-10-02T14:56:23.993Z,101266.03
2022-10-02T14:59:52.654Z,101280.81
2022-10-02T15:03:23.474Z,101297.97
2022-10-02T15:21:12.518Z,101357.34
2022-10-02T15:24:48.438Z,101360.31
2022-10-02T15:28:43.916Z,101359.13
2022-10-02T15:32:07.056Z,101349.22
2022-10-02T15:35:44.192Z,101343.06
2022-10-02T15:39:28.149Z,101340.31
2022-10-02T15:43:17.361Z,101347.66
2022-10-02T15:46:33.754Z,101364.41
2022-10-02T15:50:35.484Z,101361.84
2022-10-02T15:54:21.554Z,101371.94
2022-10-02T15:57:54.535Z,101361.28
2022-10-02T16:01:43.478Z,101362.50
2022-10-02T16:05:32.009Z,101350.06
2022-10-02T16:09:06.946Z,101359.66
2022-10-02T16:12:41.877Z,101374.47
2022-10-02T16:16:00.806Z,101372.94
2022-10-02T16:19:53.099Z,101383.50
2022-10-02T16:23:16.079Z,101391.78
2022-10-02T16:27:00.032Z,101407.00
2022-10-02T16:30:32.100Z,101421.41
2022-10-02T16:34:16.278Z,101432.69
2022-10-02T16:37:29.329Z,101441.72
2022-10-02T16:40:58.570Z,101443.75
2022-10-02T16:44:47.246Z,101463.47
2022-10-02T16:48:05.050Z,101467.22
2022-10-02T16:51:40.191Z,101467.78
2022-10-02T16:55:19.125Z,101488.97
2022-10-02T16:58:43.995Z,101483.00
2022-10-02T17:02:32.310Z,101475.09
2022-10-02T17:05:54.694Z,101479.59
2022-10-02T17:09:20.362Z,101485.94
2022-10-02T17:12:54.989Z,101489.69
2022-10-02T17:16:57.889Z,101485.47
2022-10-02T17:20:07.732Z,101490.06
2022-10-02T17:23:15.525Z,101506.72
2022-10-02T17:26:44.670Z,101503.41
2022-10-02T17:30:24.312Z,101514.94
2022-10-02T17:33:40.097Z,101514.94
2022-10-02T17:37:32.189Z,101511.53
2022-10-02T17:41:20.407Z,101527.50
2022-10-02T17:44:46.074Z,101537.44
2022-10-02T17:48:11.492Z,101549.06
2022-10-02T17:51:51.176Z,101556.09
2022-10-02T17:55:41.769Z,101563.44
2022-10-02T17:59:12.996Z,101569.88
2022-10-02T18:02:41.259Z,101578.69
2022-10-02T18:06:01.582Z,101578.78
2022-10-02T18:09:47.352Z,101578.84
2022-10-02T18:13:56.073Z,101593.81
2022-10-02T18:17:23.816Z,101603.47
2022-10-02T18:20:43.450Z,101612.34
2022-10-02T18:24:02.837Z,101623.00
2022-10-02T18:27:37.703Z,101631.91
2022-10-02T18:31:07.939Z,101640.13
2022-10-02T18:34:57.041Z,101648.03
2022-10-02T18:38:31.134Z,101641.81
2022-10-02T18:41:55.817Z,101649.66
2022-10-02T18:45:37.882Z,101653.94
2022-10-02T18:49:09.196Z,101647.66
2022-10-02T18:52:28.400Z,101659.78
2022-10-02T18:55:50.170Z,101658.91
2022-10-02T18:59:27.478Z,101665.91
2022-10-02T19:02:53.910Z,101667.88
2022-10-02T19:06:11.428Z,101678.56
2022-10-02T19:09:22.873Z,101686.53
2022-10-02T19:12:31.427Z,101691.81
2022-10-02T19:15:36.649Z,101701.44
2022-10-02T19:18:40.864Z,101692.66
2022-10-02T19:21:45.699Z,101704.16
2022-10-02T19:25:05.614Z,101704.22
2022-10-02T19:28:19.581Z,101699.78
2022-10-02T19:31:27.443Z,101709.53
2022-10-02T19:34:32.420Z,101709.69
2022-10-02T19:37:44.282Z,101716.88
2022-10-02T19:40:54.249Z,101718.84
2022-10-02T19:44:06.838Z,101720.75
2022-10-02T19:47:45.588Z,101726.94
2022-10-02T19:50:55.402Z,101730.50
2022-10-02T19:54:03.489Z,101735.75
2022-10-02T19:57:16.495Z,101727.94
2022-10-02T20:00:21.095Z,101741.28
2022-10-02T20:03:27.080Z,101741.28
2022-10-02T20:06:37.615Z,101745.00
2022-10-02T20:10:03.816Z,101742.44
2022-10-02T20:13:33.550Z,101753.81
2022-10-02T20:16:59.293Z,101757.50
2022-10-02T20:20:11.992Z,101760.94
2022-10-02T20:23:26.962Z,101768.09
2022-10-02T20:26:33.971Z,101767.16
2022-10-02T20:29:47.086Z,101766.25
2022-10-02T20:33:06.614Z,101775.19
2022-10-02T20:36:23.247Z,101771.00
2022-10-02T20:39:40.831Z,101766.97
2022-10-02T20:43:01.960Z,101765.25
2022-10-02T20:46:29.048Z,101779.78
2022-10-02T20:49:54.745Z,101795.72
2022-10-02T20:53:05.524Z,101789.50
2022-10-02T20:56:45.871Z,101787.63
2022-10-02T21:00:21.892Z,101785.94
2022-10-02T21:04:09.139Z,101786.84
2022-10-02T21:07:59.212Z,101787.16
2022-10-02T21:11:03.782Z,101795.25
2022-10-02T21:14:42.380Z,101790.25
2022-10-02T21:18:29.695Z,101797.22
2022-10-02T21:22:14.812Z,101805.09
2022-10-02T21:26:16.471Z,101800.97
2022-10-02T21:29:36.089Z,101797.69
2022-10-02T21:33:05.355Z,101802.19
2022-10-02T21:36:31.283Z,101808.44
2022-10-02T21:40:08.107Z,101808.56
2022-10-02T21:44:08.951Z,101812.16
2022-10-02T21:47:54.169Z,101820.06
2022-10-02T21:51:56.851Z,101828.78
2022-10-02T21:55:54.951Z,101834.03
2022-10-02T21:59:14.201Z,101836.66
2022-10-02T22:02:37.265Z,101842.06
2022-10-02T22:06:20.942Z,101838.47
2022-10-02T22:10:02.186Z,101848.94
2022-10-02T22:13:15.931Z,101837.69
2022-10-02T22:16:28.773Z,101839.41
2022-10-02T22:20:08.386Z,101843.06
2022-10-02T22:23:47.671Z,101848.38
2022-10-02T22:27:10.463Z,101852.75
2022-10-02T22:30:29.809Z,101857.28
2022-10-02T22:33:57.050Z,101859.97
2022-10-02T22:37:37.844Z,101865.97
2022-10-02T22:40:48.324Z,101869.38
2022-10-02T22:44:12.008Z,101868.03
2022-10-02T22:47:37.805Z,101873.91
2022-10-02T22:50:58.207Z,101872.19
2022-10-02T22:54:33.244Z,101874.94
2022-10-02T22:58:05.653Z,101870.66
2022-10-02T23:01:17.141Z,101866.47
2022-10-02T23:04:39.124Z,101874.47
2022-10-02T23:08:15.959Z,101888.56
2022-10-02T23:11:56.347Z,101888.63
2022-10-02T23:15:47.535Z,101893.94
2022-10-02T23:19:29.531Z,101902.72
2022-10-02T23:22:43.811Z,101901.03
2022-10-02T23:26:12.413Z,101907.09
2022-10-02T23:29:49.359Z,101915.09
2022-10-02T23:33:17.822Z,101911.66
2022-10-02T23:36:36.390Z,101915.97
2022-10-02T23:39:53.549Z,101924.81
2022-10-02T23:43:04.631Z,101920.44
2022-10-02T23:46:19.783Z,101923.09
2022-10-02T23:49:33.917Z,101929.25
2022-10-02T23:52:57.156Z,101928.13
2022-10-02T23:56:20.187Z,101936.66
2022-10-02T23:59:52.788Z,101941.06
